Time,TemperatureF,DewpointF,PressureIn,WindDirection,WindDirectionDegrees,WindSpeedMPH,WindSpeedGustMPH,Humidity,HourlyPrecipIn,Conditions,Clouds,dailyrainin,SoftwareType,DateUTC
2013-03-05 00:00:00,33.9,33.9,30.06,SW,235,0.0,2.0,100,0.00,,,0.00,WeatherDisplay:10.37,2013-03-05 05:00:00,
2013-03-05 00:22:00,33.9,33.9,30.07,SW,235,0.0,0.0,100,0.00,,,0.00,WeatherDisplay:10.37,2013-03-05 05:22:00,
2013-03-05 00:59:00,34.3,34.3,30.06,SW,235,0.0,0.0,100,0.00,,,0.00,WeatherDisplay:10.37,2013-03-05 05:59:00,
2013-03-05 01:59:00,34.1,34.1,30.08,SW,235,0.0,0.0,100,0.00,,,0.00,WeatherDisplay:10.37,2013-03-05 06:59:00,
2013-03-05 03:00:00,35.0,35.0,30.07,SW,235,0.0,0.0,100,0.00,,,0.00,WeatherDisplay:10.37,2013-03-05 08:00:00,
2013-03-05 03:59:00,35.7,35.7,30.07,SW,235,0.0,0.0,100,0.00,,,0.00,WeatherDisplay:10.37,2013-03-05 08:59:00,
2013-03-05 05:00:00,35.3,35.3,30.07,SW,235,0.0,0.0,100,0.00,,,0.00,WeatherDisplay:10.37,2013-03-05 10:00:00,
2013-03-05 06:00:00,34.9,34.9,30.08,SW,235,0.0,2.0,100,0.00,,,0.00,WeatherDisplay:10.37,2013-03-05 11:00:00,
2013-03-05 07:00:00,33.3,33.3,30.07,SW,235,0.0,0.0,100,0.00,,,0.00,WeatherDisplay:10.37,2013-03-05 12:00:00,
2013-03-05 08:00:00,35.6,35.6,30.06,SW,235,0.0,0.0,100,0.00,,,0.00,WeatherDisplay:10.37,2013-03-05 13:00:00,
2013-03-05 09:00:00,42.4,42.4,30.04,SW,224,0.0,2.0,100,0.00,,,0.00,WeatherDisplay:10.37,2013-03-05 14:00:00,
2013-03-05 10:00:00,50.4,50.4,30.03,SSW,193,2.0,6.0,100,0.00,CLR,,0.00,WeatherDisplay:10.37,2013-03-05 15:00:00,
2013-03-05 11:00:00,49.0,49.0,30.01,South,189,0.0,4.0,100,0.00,CLR,,0.00,WeatherDisplay:10.37,2013-03-05 16:00:00,
2013-03-05 12:00:00,50.1,50.1,30.00,SW,220,2.0,7.0,100,0.00,CLR,,0.00,WeatherDisplay:10.37,2013-03-05 17:00:00,
2013-03-05 13:00:00,46.1,46.1,29.97,SW,225,0.0,12.0,100,0.02,RA,,0.02,WeatherDisplay:10.37,2013-03-05 18:00:00,
2013-03-05 14:00:00,45.3,45.3,29.93,South,177,0.0,4.0,100,0.07,RA,,0.09,WeatherDisplay:10.37,2013-03-05 19:00:00,
2013-03-05 15:00:00,45.4,45.4,29.91,SSW,212,0.0,3.0,100,0.02,,,0.11,WeatherDisplay:10.37,2013-03-05 20:00:00,
2013-03-05 16:00:00,45.4,45.4,29.89,SSE,166,0.0,2.0,100,0.03,RA,,0.14,WeatherDisplay:10.37,2013-03-05 21:00:00,
2013-03-05 17:00:00,45.5,45.5,29.87,ENE,69,0.0,2.0,100,0.01,RA,,0.15,WeatherDisplay:10.37,2013-03-05 22:00:00,
2013-03-05 18:00:00,45.3,45.3,29.84,ENE,69,0.0,2.0,100,0.01,,,0.16,WeatherDisplay:10.37,2013-03-05 23:00:00,
2013-03-05 19:00:00,44.8,44.8,29.80,East,98,0.0,4.0,100,0.00,,,0.16,WeatherDisplay:10.37,2013-03-06 00:00:00,
2013-03-05 20:00:00,44.8,44.8,29.74,East,89,0.0,6.0,100,0.00,,,0.16,WeatherDisplay:10.37,2013-03-06 01:00:00,
2013-03-05 21:00:00,43.5,43.5,29.67,ESE,116,1.0,8.0,100,0.01,,,0.17,WeatherDisplay:10.37,2013-03-06 02:00:00,
2013-03-05 22:00:00,42.5,42.5,29.64,North,6,1.0,7.0,100,0.04,RA,,0.21,WeatherDisplay:10.37,2013-03-06 03:00:00,
2013-03-05 23:00:00,42.0,42.0,29.61,SSE,152,1.0,7.0,100,0.26,,,0.47,WeatherDisplay:10.37,2013-03-06 04:00:00,